sensor_id;sensor_type;location;lat;lon;timestamp;P1;durP1;ratioP1;P2;durP2;ratioP2
13487;SDS011;6816;48.506;9.050;2022-12-08T00:02:40;6.00;;;4.50;;
13487;SDS011;6816;48.506;9.050;2022-12-08T00:05:47;4.93;;;3.93;;
13487;SDS011;6816;48.506;9.050;2022-12-08T00:09:27;6.27;;;4.37;;
13487;SDS011;6816;48.506;9.050;2022-12-08T00:12:32;5.17;;;4.33;;
13487;SDS011;6816;48.506;9.050;2022-12-08T00:15:33;4.30;;;3.70;;
13487;SDS011;6816;48.506;9.050;2022-12-08T00:18:34;6.63;;;4.50;;
13487;SDS011;6816;48.506;9.050;2022-12-08T00:21:35;5.63;;;4.03;;
13487;SDS011;6816;48.506;9.050;2022-12-08T00:24:36;5.37;;;4.67;;
13487;SDS011;6816;48.506;9.050;2022-12-08T00:27:38;7.17;;;3.77;;
13487;SDS011;6816;48.506;9.050;2022-12-08T00:30:40;6.33;;;4.83;;
13487;SDS011;6816;48.506;9.050;2022-12-08T00:33:41;6.90;;;5.03;;
13487;SDS011;6816;48.506;9.050;2022-12-08T00:36:42;6.83;;;5.10;;
13487;SDS011;6816;48.506;9.050;2022-12-08T00:39:43;5.53;;;4.27;;
13487;SDS011;6816;48.506;9.050;2022-12-08T00:42:43;7.00;;;4.80;;
13487;SDS011;6816;48.506;9.050;2022-12-08T00:45:44;6.57;;;4.10;;
13487;SDS011;6816;48.506;9.050;2022-12-08T00:48:45;6.73;;;4.70;;
13487;SDS011;6816;48.506;9.050;2022-12-08T00:51:45;6.80;;;4.90;;
13487;SDS011;6816;48.506;9.050;2022-12-08T00:54:46;6.17;;;4.77;;
13487;SDS011;6816;48.506;9.050;2022-12-08T00:57:46;6.60;;;4.67;;
13487;SDS011;6816;48.506;9.050;2022-12-08T01:00:47;5.00;;;4.03;;
13487;SDS011;6816;48.506;9.050;2022-12-08T01:03:48;6.20;;;4.43;;
13487;SDS011;6816;48.506;9.050;2022-12-08T01:06:49;4.53;;;3.97;;
13487;SDS011;6816;48.506;9.050;2022-12-08T01:09:49;6.13;;;4.10;;
13487;SDS011;6816;48.506;9.050;2022-12-08T01:12:50;4.93;;;3.80;;
13487;SDS011;6816;48.506;9.050;2022-12-08T01:15:51;7.93;;;4.47;;
13487;SDS011;6816;48.506;9.050;2022-12-08T01:18:51;4.83;;;3.90;;
13487;SDS011;6816;48.506;9.050;2022-12-08T01:21:52;4.67;;;3.77;;
13487;SDS011;6816;48.506;9.050;2022-12-08T01:24:53;5.60;;;4.07;;
13487;SDS011;6816;48.506;9.050;2022-12-08T01:27:53;5.83;;;4.47;;
13487;SDS011;6816;48.506;9.050;2022-12-08T01:30:54;5.07;;;4.03;;
13487;SDS011;6816;48.506;9.050;2022-12-08T01:33:54;4.47;;;3.77;;
13487;SDS011;6816;48.506;9.050;2022-12-08T01:36:55;4.83;;;3.37;;
13487;SDS011;6816;48.506;9.050;2022-12-08T01:39:56;3.90;;;3.40;;
13487;SDS011;6816;48.506;9.050;2022-12-08T01:42:57;6.00;;;3.93;;
13487;SDS011;6816;48.506;9.050;2022-12-08T01:45:57;5.37;;;4.17;;
13487;SDS011;6816;48.506;9.050;2022-12-08T01:49:06;5.30;;;4.03;;
13487;SDS011;6816;48.506;9.050;2022-12-08T01:52:10;5.07;;;3.87;;
13487;SDS011;6816;48.506;9.050;2022-12-08T01:55:14;5.60;;;3.83;;
13487;SDS011;6816;48.506;9.050;2022-12-08T01:58:24;4.40;;;3.77;;
13487;SDS011;6816;48.506;9.050;2022-12-08T02:01:30;5.03;;;3.77;;
13487;SDS011;6816;48.506;9.050;2022-12-08T02:04:31;4.83;;;3.70;;
13487;SDS011;6816;48.506;9.050;2022-12-08T02:07:31;5.70;;;3.83;;
13487;SDS011;6816;48.506;9.050;2022-12-08T02:10:34;6.00;;;3.87;;
13487;SDS011;6816;48.506;9.050;2022-12-08T02:13:37;4.87;;;4.07;;
13487;SDS011;6816;48.506;9.050;2022-12-08T02:40:15;11.17;;;4.60;;
13487;SDS011;6816;48.506;9.050;2022-12-08T02:43:46;8.13;;;4.70;;
13487;SDS011;6816;48.506;9.050;2022-12-08T02:46:51;6.07;;;4.37;;
13487;SDS011;6816;48.506;9.050;2022-12-08T02:49:56;5.80;;;4.40;;
13487;SDS011;6816;48.506;9.050;2022-12-08T02:52:57;6.30;;;4.10;;
13487;SDS011;6816;48.506;9.050;2022-12-08T02:59:20;6.97;;;4.40;;
13487;SDS011;6816;48.506;9.050;2022-12-08T03:05:43;5.70;;;4.00;;
13487;SDS011;6816;48.506;9.050;2022-12-08T03:09:02;6.27;;;3.93;;
13487;SDS011;6816;48.506;9.050;2022-12-08T03:12:19;5.57;;;4.23;;
13487;SDS011;6816;48.506;9.050;2022-12-08T03:15:41;6.00;;;4.20;;
13487;SDS011;6816;48.506;9.050;2022-12-08T03:18:46;5.47;;;3.93;;
13487;SDS011;6816;48.506;9.050;2022-12-08T03:21:51;6.13;;;4.20;;
13487;SDS011;6816;48.506;9.050;2022-12-08T03:25:01;5.47;;;3.83;;
13487;SDS011;6816;48.506;9.050;2022-12-08T03:28:02;6.33;;;4.50;;
13487;SDS011;6816;48.506;9.050;2022-12-08T03:31:05;4.90;;;3.60;;
13487;SDS011;6816;48.506;9.050;2022-12-08T03:34:09;5.73;;;3.70;;
13487;SDS011;6816;48.506;9.050;2022-12-08T03:37:11;5.40;;;3.80;;
13487;SDS011;6816;48.506;9.050;2022-12-08T03:40:13;4.47;;;3.30;;
13487;SDS011;6816;48.506;9.050;2022-12-08T03:43:16;4.97;;;3.57;;
13487;SDS011;6816;48.506;9.050;2022-12-08T03:46:16;5.63;;;4.00;;
13487;SDS011;6816;48.506;9.050;2022-12-08T03:49:18;5.47;;;3.50;;
13487;SDS011;6816;48.506;9.050;2022-12-08T03:52:19;7.00;;;3.93;;
13487;SDS011;6816;48.506;9.050;2022-12-08T03:55:20;7.13;;;4.47;;
13487;SDS011;6816;48.506;9.050;2022-12-08T03:58:20;6.23;;;3.80;;
13487;SDS011;6816;48.506;9.050;2022-12-08T04:01:21;5.70;;;3.77;;
13487;SDS011;6816;48.506;9.050;2022-12-08T04:04:22;4.90;;;3.60;;
13487;SDS011;6816;48.506;9.050;2022-12-08T04:07:23;4.27;;;3.77;;
13487;SDS011;6816;48.506;9.050;2022-12-08T04:10:24;5.43;;;4.27;;
13487;SDS011;6816;48.506;9.050;2022-12-08T04:13:24;6.10;;;4.30;;
13487;SDS011;6816;48.506;9.050;2022-12-08T04:16:25;4.17;;;3.43;;
13487;SDS011;6816;48.506;9.050;2022-12-08T04:19:26;5.83;;;3.93;;
13487;SDS011;6816;48.506;9.050;2022-12-08T04:22:27;5.40;;;3.80;;
13487;SDS011;6816;48.506;9.050;2022-12-08T04:25:28;4.97;;;3.80;;
13487;SDS011;6816;48.506;9.050;2022-12-08T04:28:28;7.73;;;3.73;;
13487;SDS011;6816;48.506;9.050;2022-12-08T04:31:29;6.90;;;4.17;;
13487;SDS011;6816;48.506;9.050;2022-12-08T04:34:30;6.03;;;3.77;;
13487;SDS011;6816;48.506;9.050;2022-12-08T04:37:30;5.10;;;3.90;;
13487;SDS011;6816;48.506;9.050;2022-12-08T04:40:31;5.47;;;4.03;;
13487;SDS011;6816;48.506;9.050;2022-12-08T04:43:32;5.67;;;3.80;;
13487;SDS011;6816;48.506;9.050;2022-12-08T04:46:33;5.07;;;3.50;;
13487;SDS011;6816;48.506;9.050;2022-12-08T04:49:33;5.60;;;4.03;;
13487;SDS011;6816;48.506;9.050;2022-12-08T04:52:34;4.10;;;3.33;;
13487;SDS011;6816;48.506;9.050;2022-12-08T04:55:40;5.33;;;3.47;;
13487;SDS011;6816;48.506;9.050;2022-12-08T04:58:42;5.70;;;4.00;;
13487;SDS011;6816;48.506;9.050;2022-12-08T05:01:44;6.83;;;4.30;;
13487;SDS011;6816;48.506;9.050;2022-12-08T05:04:45;5.73;;;4.30;;
13487;SDS011;6816;48.506;9.050;2022-12-08T05:07:45;4.63;;;3.60;;
13487;SDS011;6816;48.506;9.050;2022-12-08T05:10:46;5.73;;;4.03;;
13487;SDS011;6816;48.506;9.050;2022-12-08T05:13:46;6.73;;;4.40;;
13487;SDS011;6816;48.506;9.050;2022-12-08T05:16:47;5.43;;;3.90;;
13487;SDS011;6816;48.506;9.050;2022-12-08T05:19:48;5.70;;;3.70;;
13487;SDS011;6816;48.506;9.050;2022-12-08T05:22:48;6.23;;;3.97;;
13487;SDS011;6816;48.506;9.050;2022-12-08T05:25:49;5.27;;;4.10;;
13487;SDS011;6816;48.506;9.050;2022-12-08T05:28:50;5.77;;;3.93;;
13487;SDS011;6816;48.506;9.050;2022-12-08T05:31:50;5.57;;;4.00;;
13487;SDS011;6816;48.506;9.050;2022-12-08T05:34:51;5.83;;;4.23;;
13487;SDS011;6816;48.506;9.050;2022-12-08T05:37:51;7.43;;;4.60;;
13487;SDS011;6816;48.506;9.050;2022-12-08T05:40:52;6.57;;;4.10;;
13487;SDS011;6816;48.506;9.050;2022-12-08T05:43:53;7.50;;;4.13;;
13487;SDS011;6816;48.506;9.050;2022-12-08T05:46:54;5.90;;;3.93;;
13487;SDS011;6816;48.506;9.050;2022-12-08T05:49:54;8.00;;;4.17;;
13487;SDS011;6816;48.506;9.050;2022-12-08T05:52:55;5.47;;;3.60;;
13487;SDS011;6816;48.506;9.050;2022-12-08T05:55:56;5.30;;;3.80;;
13487;SDS011;6816;48.506;9.050;2022-12-08T05:58:56;5.07;;;3.43;;
13487;SDS011;6816;48.506;9.050;2022-12-08T06:01:57;6.70;;;3.73;;
13487;SDS011;6816;48.506;9.050;2022-12-08T06:04:57;5.23;;;3.43;;
13487;SDS011;6816;48.506;9.050;2022-12-08T06:07:58;5.20;;;3.77;;
13487;SDS011;6816;48.506;9.050;2022-12-08T06:10:59;7.13;;;4.30;;
13487;SDS011;6816;48.506;9.050;2022-12-08T06:13:59;6.73;;;4.43;;
13487;SDS011;6816;48.506;9.050;2022-12-08T06:17:00;5.73;;;4.23;;
13487;SDS011;6816;48.506;9.050;2022-12-08T06:20:01;6.60;;;4.13;;
13487;SDS011;6816;48.506;9.050;2022-12-08T06:23:03;6.73;;;4.40;;
13487;SDS011;6816;48.506;9.050;2022-12-08T06:26:04;9.27;;;5.03;;
13487;SDS011;6816;48.506;9.050;2022-12-08T06:29:07;7.17;;;4.70;;
13487;SDS011;6816;48.506;9.050;2022-12-08T06:32:07;6.97;;;4.67;;
13487;SDS011;6816;48.506;9.050;2022-12-08T06:35:08;7.67;;;4.63;;
13487;SDS011;6816;48.506;9.050;2022-12-08T06:38:09;9.57;;;5.93;;
13487;SDS011;6816;48.506;9.050;2022-12-08T06:41:10;8.23;;;4.90;;
13487;SDS011;6816;48.506;9.050;2022-12-08T06:44:11;13.07;;;5.67;;
13487;SDS011;6816;48.506;9.050;2022-12-08T06:47:12;7.30;;;4.97;;
13487;SDS011;6816;48.506;9.050;2022-12-08T06:50:13;8.13;;;5.40;;
13487;SDS011;6816;48.506;9.050;2022-12-08T06:53:14;8.97;;;5.43;;
13487;SDS011;6816;48.506;9.050;2022-12-08T06:56:15;7.57;;;5.33;;
13487;SDS011;6816;48.506;9.050;2022-12-08T06:59:18;9.70;;;5.27;;
13487;SDS011;6816;48.506;9.050;2022-12-08T07:02:19;9.10;;;5.53;;
13487;SDS011;6816;48.506;9.050;2022-12-08T07:05:20;7.60;;;4.97;;
13487;SDS011;6816;48.506;9.050;2022-12-08T07:08:20;6.53;;;4.80;;
13487;SDS011;6816;48.506;9.050;2022-12-08T07:11:22;5.70;;;4.10;;
13487;SDS011;6816;48.506;9.050;2022-12-08T07:14:23;7.40;;;4.90;;
13487;SDS011;6816;48.506;9.050;2022-12-08T07:17:24;6.77;;;5.00;;
13487;SDS011;6816;48.506;9.050;2022-12-08T07:20:24;5.93;;;4.27;;
13487;SDS011;6816;48.506;9.050;2022-12-08T07:23:25;7.17;;;4.70;;
13487;SDS011;6816;48.506;9.050;2022-12-08T07:26:25;8.00;;;4.70;;
13487;SDS011;6816;48.506;9.050;2022-12-08T07:29:26;9.67;;;5.27;;
13487;SDS011;6816;48.506;9.050;2022-12-08T07:32:26;6.10;;;3.83;;
13487;SDS011;6816;48.506;9.050;2022-12-08T07:35:27;7.93;;;4.60;;
13487;SDS011;6816;48.506;9.050;2022-12-08T07:38:28;5.40;;;4.00;;
13487;SDS011;6816;48.506;9.050;2022-12-08T07:41:29;8.93;;;4.73;;
13487;SDS011;6816;48.506;9.050;2022-12-08T07:44:30;8.33;;;4.67;;
13487;SDS011;6816;48.506;9.050;2022-12-08T07:47:30;10.27;;;5.30;;
13487;SDS011;6816;48.506;9.050;2022-12-08T07:50:31;8.43;;;4.90;;
13487;SDS011;6816;48.506;9.050;2022-12-08T07:53:32;6.80;;;4.50;;
13487;SDS011;6816;48.506;9.050;2022-12-08T07:56:33;16.93;;;7.37;;
13487;SDS011;6816;48.506;9.050;2022-12-08T07:59:34;8.57;;;5.40;;
13487;SDS011;6816;48.506;9.050;2022-12-08T08:02:35;8.60;;;5.33;;
13487;SDS011;6816;48.506;9.050;2022-12-08T08:05:35;6.67;;;4.63;;
13487;SDS011;6816;48.506;9.050;2022-12-08T08:08:36;6.67;;;4.73;;
13487;SDS011;6816;48.506;9.050;2022-12-08T08:11:36;10.67;;;6.13;;
13487;SDS011;6816;48.506;9.050;2022-12-08T08:14:37;8.60;;;5.63;;
13487;SDS011;6816;48.506;9.050;2022-12-08T08:17:38;7.47;;;5.10;;
13487;SDS011;6816;48.506;9.050;2022-12-08T08:20:39;8.43;;;6.00;;
13487;SDS011;6816;48.506;9.050;2022-12-08T08:23:40;9.83;;;5.73;;
13487;SDS011;6816;48.506;9.050;2022-12-08T08:26:40;7.07;;;4.80;;
13487;SDS011;6816;48.506;9.050;2022-12-08T08:29:41;8.53;;;5.23;;
13487;SDS011;6816;48.506;9.050;2022-12-08T08:32:42;8.90;;;5.20;;
13487;SDS011;6816;48.506;9.050;2022-12-08T08:35:43;10.03;;;6.07;;
13487;SDS011;6816;48.506;9.050;2022-12-08T08:38:43;10.00;;;6.53;;
13487;SDS011;6816;48.506;9.050;2022-12-08T08:41:44;9.17;;;6.40;;
13487;SDS011;6816;48.506;9.050;2022-12-08T08:44:45;8.70;;;5.83;;
13487;SDS011;6816;48.506;9.050;2022-12-08T08:47:45;8.50;;;5.80;;
13487;SDS011;6816;48.506;9.050;2022-12-08T08:50:46;7.07;;;5.10;;
13487;SDS011;6816;48.506;9.050;2022-12-08T08:53:47;9.40;;;5.83;;
13487;SDS011;6816;48.506;9.050;2022-12-08T08:56:47;7.57;;;5.43;;
13487;SDS011;6816;48.506;9.050;2022-12-08T08:59:48;8.03;;;5.57;;
13487;SDS011;6816;48.506;9.050;2022-12-08T09:02:48;9.23;;;5.73;;
13487;SDS011;6816;48.506;9.050;2022-12-08T09:05:49;7.47;;;5.00;;
13487;SDS011;6816;48.506;9.050;2022-12-08T09:08:50;7.33;;;4.97;;
13487;SDS011;6816;48.506;9.050;2022-12-08T09:11:51;8.00;;;5.03;;
13487;SDS011;6816;48.506;9.050;2022-12-08T09:14:51;7.03;;;5.23;;
13487;SDS011;6816;48.506;9.050;2022-12-08T09:17:52;9.47;;;5.70;;
13487;SDS011;6816;48.506;9.050;2022-12-08T09:20:53;8.50;;;5.30;;
13487;SDS011;6816;48.506;9.050;2022-12-08T09:23:54;6.93;;;5.33;;
13487;SDS011;6816;48.506;9.050;2022-12-08T09:26:56;16.30;;;9.83;;
13487;SDS011;6816;48.506;9.050;2022-12-08T09:29:57;16.27;;;10.40;;
13487;SDS011;6816;48.506;9.050;2022-12-08T09:32:57;20.30;;;10.53;;
13487;SDS011;6816;48.506;9.050;2022-12-08T09:36:02;12.57;;;7.30;;
13487;SDS011;6816;48.506;9.050;2022-12-08T09:39:03;8.43;;;6.30;;
13487;SDS011;6816;48.506;9.050;2022-12-08T09:42:04;8.30;;;6.43;;
13487;SDS011;6816;48.506;9.050;2022-12-08T09:45:08;8.27;;;6.33;;
13487;SDS011;6816;48.506;9.050;2022-12-08T09:48:13;7.40;;;5.43;;
13487;SDS011;6816;48.506;9.050;2022-12-08T09:51:18;8.33;;;5.60;;
13487;SDS011;6816;48.506;9.050;2022-12-08T09:54:24;8.67;;;5.40;;
13487;SDS011;6816;48.506;9.050;2022-12-08T09:57:29;6.70;;;4.80;;
13487;SDS011;6816;48.506;9.050;2022-12-08T10:00:31;7.23;;;5.10;;
13487;SDS011;6816;48.506;9.050;2022-12-08T10:03:32;8.57;;;5.23;;
13487;SDS011;6816;48.506;9.050;2022-12-08T10:06:37;7.77;;;5.10;;
13487;SDS011;6816;48.506;9.050;2022-12-08T10:16:34;7.73;;;5.33;;
13487;SDS011;6816;48.506;9.050;2022-12-08T10:19:39;6.97;;;5.77;;
13487;SDS011;6816;48.506;9.050;2022-12-08T10:22:41;7.40;;;6.00;;
13487;SDS011;6816;48.506;9.050;2022-12-08T10:25:44;9.33;;;5.70;;
13487;SDS011;6816;48.506;9.050;2022-12-08T10:28:46;6.83;;;5.17;;
13487;SDS011;6816;48.506;9.050;2022-12-08T10:31:47;7.83;;;5.43;;
13487;SDS011;6816;48.506;9.050;2022-12-08T10:34:59;7.00;;;5.47;;
13487;SDS011;6816;48.506;9.050;2022-12-08T10:38:14;6.17;;;5.23;;
13487;SDS011;6816;48.506;9.050;2022-12-08T10:41:26;6.43;;;5.30;;
13487;SDS011;6816;48.506;9.050;2022-12-08T10:44:26;10.13;;;6.00;;
13487;SDS011;6816;48.506;9.050;2022-12-08T10:47:28;8.33;;;5.70;;
13487;SDS011;6816;48.506;9.050;2022-12-08T10:50:35;7.30;;;5.37;;
13487;SDS011;6816;48.506;9.050;2022-12-08T10:53:45;7.60;;;6.00;;
13487;SDS011;6816;48.506;9.050;2022-12-08T10:56:51;7.87;;;6.43;;
13487;SDS011;6816;48.506;9.050;2022-12-08T10:59:54;8.17;;;6.40;;
13487;SDS011;6816;48.506;9.050;2022-12-08T11:03:00;7.33;;;6.30;;
13487;SDS011;6816;48.506;9.050;2022-12-08T11:06:08;7.73;;;6.03;;
13487;SDS011;6816;48.506;9.050;2022-12-08T11:12:19;7.27;;;5.83;;
13487;SDS011;6816;48.506;9.050;2022-12-08T11:15:21;6.93;;;5.63;;
13487;SDS011;6816;48.506;9.050;2022-12-08T11:18:29;7.57;;;5.60;;
13487;SDS011;6816;48.506;9.050;2022-12-08T11:21:39;6.30;;;5.40;;
13487;SDS011;6816;48.506;9.050;2022-12-08T11:24:41;5.90;;;4.90;;
13487;SDS011;6816;48.506;9.050;2022-12-08T11:27:43;5.27;;;4.73;;
13487;SDS011;6816;48.506;9.050;2022-12-08T11:30:46;5.00;;;4.37;;
13487;SDS011;6816;48.506;9.050;2022-12-08T11:33:53;4.67;;;4.17;;
13487;SDS011;6816;48.506;9.050;2022-12-08T11:36:55;6.20;;;4.43;;
13487;SDS011;6816;48.506;9.050;2022-12-08T11:39:58;4.40;;;3.90;;
13487;SDS011;6816;48.506;9.050;2022-12-08T11:43:17;3.70;;;3.20;;
13487;SDS011;6816;48.506;9.050;2022-12-08T11:46:32;4.00;;;3.20;;
13487;SDS011;6816;48.506;9.050;2022-12-08T11:49:54;3.17;;;2.80;;
13487;SDS011;6816;48.506;9.050;2022-12-08T11:53:02;3.33;;;2.67;;
13487;SDS011;6816;48.506;9.050;2022-12-08T11:59:38;3.27;;;2.63;;
13487;SDS011;6816;48.506;9.050;2022-12-08T12:02:47;2.77;;;2.50;;
13487;SDS011;6816;48.506;9.050;2022-12-08T12:06:07;3.50;;;2.83;;
13487;SDS011;6816;48.506;9.050;2022-12-08T12:19:21;3.13;;;2.60;;
13487;SDS011;6816;48.506;9.050;2022-12-08T12:22:32;3.70;;;2.73;;
13487;SDS011;6816;48.506;9.050;2022-12-08T12:25:34;3.80;;;2.57;;
13487;SDS011;6816;48.506;9.050;2022-12-08T12:28:39;3.50;;;2.67;;
13487;SDS011;6816;48.506;9.050;2022-12-08T12:31:50;3.63;;;2.87;;
13487;SDS011;6816;48.506;9.050;2022-12-08T12:34:55;3.80;;;2.57;;
13487;SDS011;6816;48.506;9.050;2022-12-08T12:38:21;4.53;;;2.73;;
13487;SDS011;6816;48.506;9.050;2022-12-08T12:41:45;3.23;;;2.30;;
13487;SDS011;6816;48.506;9.050;2022-12-08T12:44:48;3.30;;;2.63;;
13487;SDS011;6816;48.506;9.050;2022-12-08T12:48:19;4.17;;;3.13;;
13487;SDS011;6816;48.506;9.050;2022-12-08T12:54:40;2.83;;;2.47;;
13487;SDS011;6816;48.506;9.050;2022-12-08T12:57:55;4.10;;;3.30;;
13487;SDS011;6816;48.506;9.050;2022-12-08T13:04:12;4.93;;;2.93;;
13487;SDS011;6816;48.506;9.050;2022-12-08T13:07:20;2.97;;;2.50;;
13487;SDS011;6816;48.506;9.050;2022-12-08T13:10:28;3.17;;;2.63;;
13487;SDS011;6816;48.506;9.050;2022-12-08T13:13:35;3.13;;;2.53;;
13487;SDS011;6816;48.506;9.050;2022-12-08T13:16:37;3.97;;;2.57;;
13487;SDS011;6816;48.506;9.050;2022-12-08T13:19:39;4.17;;;3.13;;
13487;SDS011;6816;48.506;9.050;2022-12-08T13:26:15;2.73;;;2.40;;
13487;SDS011;6816;48.506;9.050;2022-12-08T13:35:28;3.37;;;2.60;;
13487;SDS011;6816;48.506;9.050;2022-12-08T13:38:29;3.13;;;2.20;;
13487;SDS011;6816;48.506;9.050;2022-12-08T13:41:37;3.07;;;2.33;;
13487;SDS011;6816;48.506;9.050;2022-12-08T13:44:51;3.40;;;2.80;;
13487;SDS011;6816;48.506;9.050;2022-12-08T13:51:18;2.57;;;2.10;;
13487;SDS011;6816;48.506;9.050;2022-12-08T13:54:29;4.07;;;2.37;;
13487;SDS011;6816;48.506;9.050;2022-12-08T13:57:36;3.37;;;2.23;;
13487;SDS011;6816;48.506;9.050;2022-12-08T14:00:36;3.53;;;2.50;;
13487;SDS011;6816;48.506;9.050;2022-12-08T14:03:52;4.70;;;3.30;;
13487;SDS011;6816;48.506;9.050;2022-12-08T14:07:00;3.57;;;2.90;;
13487;SDS011;6816;48.506;9.050;2022-12-08T14:10:03;3.70;;;2.73;;
13487;SDS011;6816;48.506;9.050;2022-12-08T14:13:10;4.43;;;3.17;;
13487;SDS011;6816;48.506;9.050;2022-12-08T14:16:54;3.33;;;2.77;;
13487;SDS011;6816;48.506;9.050;2022-12-08T14:19:38;3.30;;;2.83;;
13487;SDS011;6816;48.506;9.050;2022-12-08T14:22:41;3.50;;;2.47;;
13487;SDS011;6816;48.506;9.050;2022-12-08T14:25:45;3.40;;;2.67;;
13487;SDS011;6816;48.506;9.050;2022-12-08T14:28:47;3.97;;;2.77;;
13487;SDS011;6816;48.506;9.050;2022-12-08T14:31:48;3.27;;;2.97;;
13487;SDS011;6816;48.506;9.050;2022-12-08T14:34:52;4.60;;;2.83;;
13487;SDS011;6816;48.506;9.050;2022-12-08T14:37:59;4.47;;;3.60;;
13487;SDS011;6816;48.506;9.050;2022-12-08T14:41:02;3.80;;;2.77;;
13487;SDS011;6816;48.506;9.050;2022-12-08T14:44:13;4.67;;;3.10;;
13487;SDS011;6816;48.506;9.050;2022-12-08T14:47:25;3.50;;;2.73;;
13487;SDS011;6816;48.506;9.050;2022-12-08T14:50:35;4.13;;;3.00;;
13487;SDS011;6816;48.506;9.050;2022-12-08T14:53:59;3.90;;;2.80;;
13487;SDS011;6816;48.506;9.050;2022-12-08T14:57:09;3.60;;;2.97;;
13487;SDS011;6816;48.506;9.050;2022-12-08T15:00:17;4.87;;;3.13;;
13487;SDS011;6816;48.506;9.050;2022-12-08T15:03:20;5.27;;;2.70;;
13487;SDS011;6816;48.506;9.050;2022-12-08T15:06:22;4.33;;;3.03;;
13487;SDS011;6816;48.506;9.050;2022-12-08T15:09:30;4.97;;;3.67;;
13487;SDS011;6816;48.506;9.050;2022-12-08T15:12:35;4.90;;;3.27;;
13487;SDS011;6816;48.506;9.050;2022-12-08T15:15:53;4.83;;;3.57;;
13487;SDS011;6816;48.506;9.050;2022-12-08T15:19:03;3.93;;;3.30;;
13487;SDS011;6816;48.506;9.050;2022-12-08T15:22:16;5.53;;;3.80;;
13487;SDS011;6816;48.506;9.050;2022-12-08T15:25:21;7.13;;;4.33;;
13487;SDS011;6816;48.506;9.050;2022-12-08T15:28:24;5.97;;;3.93;;
13487;SDS011;6816;48.506;9.050;2022-12-08T15:31:27;5.70;;;3.67;;
13487;SDS011;6816;48.506;9.050;2022-12-08T15:34:28;5.13;;;3.77;;
13487;SDS011;6816;48.506;9.050;2022-12-08T15:37:30;5.40;;;3.77;;
13487;SDS011;6816;48.506;9.050;2022-12-08T15:40:32;6.50;;;4.27;;
13487;SDS011;6816;48.506;9.050;2022-12-08T15:43:33;6.07;;;3.93;;
13487;SDS011;6816;48.506;9.050;2022-12-08T15:46:34;4.07;;;3.10;;
13487;SDS011;6816;48.506;9.050;2022-12-08T15:49:35;3.77;;;3.37;;
13487;SDS011;6816;48.506;9.050;2022-12-08T15:52:35;5.10;;;3.03;;
13487;SDS011;6816;48.506;9.050;2022-12-08T15:55:36;3.50;;;2.80;;
13487;SDS011;6816;48.506;9.050;2022-12-08T15:58:37;4.23;;;2.70;;
13487;SDS011;6816;48.506;9.050;2022-12-08T16:01:38;4.00;;;2.50;;
13487;SDS011;6816;48.506;9.050;2022-12-08T16:04:39;3.87;;;2.67;;
13487;SDS011;6816;48.506;9.050;2022-12-08T16:07:40;5.73;;;3.13;;
13487;SDS011;6816;48.506;9.050;2022-12-08T16:10:41;3.10;;;2.50;;
13487;SDS011;6816;48.506;9.050;2022-12-08T16:13:43;2.77;;;2.37;;
13487;SDS011;6816;48.506;9.050;2022-12-08T16:16:52;2.00;;;1.70;;
13487;SDS011;6816;48.506;9.050;2022-12-08T16:19:53;4.00;;;2.53;;
13487;SDS011;6816;48.506;9.050;2022-12-08T16:22:54;3.70;;;2.90;;
13487;SDS011;6816;48.506;9.050;2022-12-08T16:25:55;5.60;;;3.50;;
13487;SDS011;6816;48.506;9.050;2022-12-08T16:28:56;5.27;;;3.47;;
13487;SDS011;6816;48.506;9.050;2022-12-08T16:31:56;3.40;;;2.97;;
13487;SDS011;6816;48.506;9.050;2022-12-08T16:34:57;3.40;;;2.97;;
13487;SDS011;6816;48.506;9.050;2022-12-08T16:37:58;2.90;;;2.40;;
13487;SDS011;6816;48.506;9.050;2022-12-08T16:40:58;3.30;;;2.53;;
13487;SDS011;6816;48.506;9.050;2022-12-08T16:44:17;3.13;;;2.57;;
13487;SDS011;6816;48.506;9.050;2022-12-08T16:47:18;2.67;;;1.97;;
13487;SDS011;6816;48.506;9.050;2022-12-08T16:50:20;4.13;;;2.67;;
13487;SDS011;6816;48.506;9.050;2022-12-08T16:53:21;3.10;;;2.17;;
13487;SDS011;6816;48.506;9.050;2022-12-08T16:56:22;3.47;;;2.17;;
13487;SDS011;6816;48.506;9.050;2022-12-08T16:59:22;2.37;;;2.13;;
13487;SDS011;6816;48.506;9.050;2022-12-08T17:02:23;2.40;;;2.03;;
13487;SDS011;6816;48.506;9.050;2022-12-08T17:05:24;4.43;;;2.90;;
13487;SDS011;6816;48.506;9.050;2022-12-08T17:08:25;4.03;;;3.00;;
13487;SDS011;6816;48.506;9.050;2022-12-08T17:11:26;3.93;;;2.83;;
13487;SDS011;6816;48.506;9.050;2022-12-08T17:14:30;4.30;;;3.23;;
13487;SDS011;6816;48.506;9.050;2022-12-08T17:17:32;4.87;;;3.43;;
13487;SDS011;6816;48.506;9.050;2022-12-08T17:20:37;5.63;;;3.87;;
13487;SDS011;6816;48.506;9.050;2022-12-08T17:23:39;5.87;;;4.40;;
13487;SDS011;6816;48.506;9.050;2022-12-08T17:26:40;6.23;;;4.47;;
13487;SDS011;6816;48.506;9.050;2022-12-08T17:29:41;5.10;;;4.00;;
13487;SDS011;6816;48.506;9.050;2022-12-08T17:32:42;5.23;;;3.33;;
13487;SDS011;6816;48.506;9.050;2022-12-08T17:35:49;4.03;;;3.37;;
13487;SDS011;6816;48.506;9.050;2022-12-08T17:38:51;5.03;;;3.60;;
13487;SDS011;6816;48.506;9.050;2022-12-08T17:41:52;5.07;;;3.07;;
13487;SDS011;6816;48.506;9.050;2022-12-08T17:44:53;4.80;;;3.20;;
13487;SDS011;6816;48.506;9.050;2022-12-08T17:47:54;6.33;;;3.63;;
13487;SDS011;6816;48.506;9.050;2022-12-08T17:50:54;5.03;;;3.57;;
13487;SDS011;6816;48.506;9.050;2022-12-08T17:53:55;6.23;;;3.40;;
13487;SDS011;6816;48.506;9.050;2022-12-08T17:56:56;5.83;;;3.77;;
13487;SDS011;6816;48.506;9.050;2022-12-08T17:59:57;4.57;;;3.30;;
13487;SDS011;6816;48.506;9.050;2022-12-08T18:02:58;4.30;;;3.10;;
13487;SDS011;6816;48.506;9.050;2022-12-08T18:06:08;5.67;;;3.37;;
13487;SDS011;6816;48.506;9.050;2022-12-08T18:09:11;6.03;;;4.43;;
13487;SDS011;6816;48.506;9.050;2022-12-08T18:12:12;7.53;;;5.13;;
13487;SDS011;6816;48.506;9.050;2022-12-08T18:15:14;8.80;;;4.93;;
13487;SDS011;6816;48.506;9.050;2022-12-08T18:18:17;6.90;;;5.33;;
13487;SDS011;6816;48.506;9.050;2022-12-08T18:21:19;7.03;;;4.87;;
13487;SDS011;6816;48.506;9.050;2022-12-08T18:24:21;7.17;;;4.63;;
13487;SDS011;6816;48.506;9.050;2022-12-08T18:27:28;5.53;;;3.90;;
13487;SDS011;6816;48.506;9.050;2022-12-08T18:30:29;5.53;;;3.87;;
13487;SDS011;6816;48.506;9.050;2022-12-08T18:33:30;4.93;;;3.73;;
13487;SDS011;6816;48.506;9.050;2022-12-08T18:36:30;6.67;;;4.33;;
13487;SDS011;6816;48.506;9.050;2022-12-08T18:39:31;6.07;;;3.40;;
13487;SDS011;6816;48.506;9.050;2022-12-08T18:42:32;4.70;;;3.60;;
13487;SDS011;6816;48.506;9.050;2022-12-08T18:45:33;4.13;;;3.27;;
13487;SDS011;6816;48.506;9.050;2022-12-08T18:48:36;3.83;;;3.13;;
13487;SDS011;6816;48.506;9.050;2022-12-08T18:51:45;5.10;;;3.10;;
13487;SDS011;6816;48.506;9.050;2022-12-08T18:54:49;2.97;;;2.67;;
13487;SDS011;6816;48.506;9.050;2022-12-08T18:57:49;3.40;;;2.50;;
13487;SDS011;6816;48.506;9.050;2022-12-08T19:00:50;3.47;;;2.47;;
13487;SDS011;6816;48.506;9.050;2022-12-08T19:03:51;5.00;;;2.50;;
13487;SDS011;6816;48.506;9.050;2022-12-08T19:06:51;5.87;;;3.30;;
13487;SDS011;6816;48.506;9.050;2022-12-08T19:09:52;10.10;;;4.80;;
13487;SDS011;6816;48.506;9.050;2022-12-08T19:12:53;8.00;;;4.83;;
13487;SDS011;6816;48.506;9.050;2022-12-08T19:15:54;8.77;;;4.23;;
13487;SDS011;6816;48.506;9.050;2022-12-08T19:18:54;7.17;;;3.53;;
13487;SDS011;6816;48.506;9.050;2022-12-08T19:21:55;5.83;;;3.10;;
13487;SDS011;6816;48.506;9.050;2022-12-08T19:24:56;3.90;;;2.70;;
13487;SDS011;6816;48.506;9.050;2022-12-08T19:27:57;5.73;;;3.40;;
13487;SDS011;6816;48.506;9.050;2022-12-08T19:30:57;4.30;;;3.00;;
13487;SDS011;6816;48.506;9.050;2022-12-08T19:33:58;4.53;;;3.00;;
13487;SDS011;6816;48.506;9.050;2022-12-08T19:36:59;4.97;;;2.63;;
13487;SDS011;6816;48.506;9.050;2022-12-08T19:39:59;4.13;;;2.60;;
13487;SDS011;6816;48.506;9.050;2022-12-08T19:43:19;4.37;;;2.60;;
13487;SDS011;6816;48.506;9.050;2022-12-08T19:46:49;3.83;;;2.80;;
13487;SDS011;6816;48.506;9.050;2022-12-08T19:49:50;3.67;;;2.70;;
13487;SDS011;6816;48.506;9.050;2022-12-08T19:52:53;4.97;;;3.30;;
13487;SDS011;6816;48.506;9.050;2022-12-08T19:55:54;5.83;;;3.83;;